sensor_id;sensor_type;location;lat;lon;timestamp;P1;durP1;ratioP1;P2;durP2;ratioP2
20810;SDS011;10566;52.928;10.522;2023-04-06T00:01:11;15.30;;;6.93;;
20810;SDS011;10566;52.928;10.522;2023-04-06T00:03:37;15.87;;;6.70;;
20810;SDS011;10566;52.928;10.522;2023-04-06T00:06:06;17.63;;;6.77;;
20810;SDS011;10566;52.928;10.522;2023-04-06T00:08:32;14.70;;;6.10;;
20810;SDS011;10566;52.928;10.522;2023-04-06T00:10:59;11.70;;;5.47;;
20810;SDS011;10566;52.928;10.522;2023-04-06T00:13:25;10.57;;;5.37;;
20810;SDS011;10566;52.928;10.522;2023-04-06T00:15:51;10.87;;;3.33;;
20810;SDS011;10566;52.928;10.522;2023-04-06T00:18:21;6.90;;;2.80;;
20810;SDS011;10566;52.928;10.522;2023-04-06T00:20:47;6.43;;;2.90;;
20810;SDS011;10566;52.928;10.522;2023-04-06T00:23:13;6.23;;;2.77;;
20810;SDS011;10566;52.928;10.522;2023-04-06T00:25:40;5.90;;;2.90;;
20810;SDS011;10566;52.928;10.522;2023-04-06T00:28:06;6.77;;;3.17;;
20810;SDS011;10566;52.928;10.522;2023-04-06T00:30:32;7.53;;;2.53;;
20810;SDS011;10566;52.928;10.522;2023-04-06T00:32:58;6.20;;;2.30;;
20810;SDS011;10566;52.928;10.522;2023-04-06T00:35:26;5.97;;;2.40;;
20810;SDS011;10566;52.928;10.522;2023-04-06T00:37:52;8.43;;;2.50;;
20810;SDS011;10566;52.928;10.522;2023-04-06T00:40:19;6.33;;;2.67;;
20810;SDS011;10566;52.928;10.522;2023-04-06T00:42:44;7.90;;;2.90;;
20810;SDS011;10566;52.928;10.522;2023-04-06T00:45:11;8.63;;;2.80;;
20810;SDS011;10566;52.928;10.522;2023-04-06T00:47:37;6.17;;;2.93;;
20810;SDS011;10566;52.928;10.522;2023-04-06T00:50:03;7.33;;;3.00;;
20810;SDS011;10566;52.928;10.522;2023-04-06T00:52:29;6.13;;;2.70;;
20810;SDS011;10566;52.928;10.522;2023-04-06T00:54:55;8.37;;;2.90;;
20810;SDS011;10566;52.928;10.522;2023-04-06T00:57:21;6.43;;;2.80;;
20810;SDS011;10566;52.928;10.522;2023-04-06T00:59:47;5.70;;;3.13;;
20810;SDS011;10566;52.928;10.522;2023-04-06T01:02:13;6.50;;;2.80;;
20810;SDS011;10566;52.928;10.522;2023-04-06T01:04:39;7.30;;;2.80;;
20810;SDS011;10566;52.928;10.522;2023-04-06T01:07:06;8.73;;;3.03;;
20810;SDS011;10566;52.928;10.522;2023-04-06T01:09:32;6.83;;;3.10;;
20810;SDS011;10566;52.928;10.522;2023-04-06T01:11:58;6.33;;;2.90;;
20810;SDS011;10566;52.928;10.522;2023-04-06T01:14:24;7.63;;;3.20;;
20810;SDS011;10566;52.928;10.522;2023-04-06T01:16:51;5.93;;;2.93;;
20810;SDS011;10566;52.928;10.522;2023-04-06T01:19:17;6.90;;;2.77;;
20810;SDS011;10566;52.928;10.522;2023-04-06T01:21:43;6.57;;;2.80;;
20810;SDS011;10566;52.928;10.522;2023-04-06T01:24:09;7.93;;;2.93;;
20810;SDS011;10566;52.928;10.522;2023-04-06T01:26:35;8.43;;;3.10;;
20810;SDS011;10566;52.928;10.522;2023-04-06T01:29:01;6.37;;;3.03;;
20810;SDS011;10566;52.928;10.522;2023-04-06T01:31:28;6.10;;;3.17;;
20810;SDS011;10566;52.928;10.522;2023-04-06T01:33:54;6.37;;;3.10;;
20810;SDS011;10566;52.928;10.522;2023-04-06T01:36:21;7.40;;;3.50;;
20810;SDS011;10566;52.928;10.522;2023-04-06T01:38:47;7.00;;;3.50;;
20810;SDS011;10566;52.928;10.522;2023-04-06T01:41:16;7.10;;;3.10;;
20810;SDS011;10566;52.928;10.522;2023-04-06T01:43:42;9.30;;;3.60;;
20810;SDS011;10566;52.928;10.522;2023-04-06T01:46:08;7.10;;;3.50;;
20810;SDS011;10566;52.928;10.522;2023-04-06T01:48:35;6.83;;;3.40;;
20810;SDS011;10566;52.928;10.522;2023-04-06T01:51:01;7.73;;;3.20;;
20810;SDS011;10566;52.928;10.522;2023-04-06T01:53:27;6.30;;;3.40;;
20810;SDS011;10566;52.928;10.522;2023-04-06T01:55:53;8.40;;;3.23;;
20810;SDS011;10566;52.928;10.522;2023-04-06T01:58:19;7.87;;;3.40;;
20810;SDS011;10566;52.928;10.522;2023-04-06T02:00:45;6.93;;;3.80;;
20810;SDS011;10566;52.928;10.522;2023-04-06T02:03:11;11.07;;;4.17;;
20810;SDS011;10566;52.928;10.522;2023-04-06T02:05:38;8.00;;;3.80;;
20810;SDS011;10566;52.928;10.522;2023-04-06T02:08:04;6.93;;;3.87;;
20810;SDS011;10566;52.928;10.522;2023-04-06T02:10:34;9.10;;;4.13;;
20810;SDS011;10566;52.928;10.522;2023-04-06T02:13:00;10.10;;;3.97;;
20810;SDS011;10566;52.928;10.522;2023-04-06T02:15:26;9.67;;;3.83;;
20810;SDS011;10566;52.928;10.522;2023-04-06T02:17:53;9.40;;;3.90;;
20810;SDS011;10566;52.928;10.522;2023-04-06T02:20:21;7.33;;;3.47;;
20810;SDS011;10566;52.928;10.522;2023-04-06T02:22:47;7.97;;;3.43;;
20810;SDS011;10566;52.928;10.522;2023-04-06T02:25:13;7.70;;;3.30;;
20810;SDS011;10566;52.928;10.522;2023-04-06T02:27:39;7.57;;;3.57;;
20810;SDS011;10566;52.928;10.522;2023-04-06T02:30:06;8.60;;;3.87;;
20810;SDS011;10566;52.928;10.522;2023-04-06T02:32:32;13.07;;;3.90;;
20810;SDS011;10566;52.928;10.522;2023-04-06T02:34:58;10.27;;;3.80;;
20810;SDS011;10566;52.928;10.522;2023-04-06T02:37:27;12.23;;;4.30;;
20810;SDS011;10566;52.928;10.522;2023-04-06T02:39:53;9.60;;;4.20;;
20810;SDS011;10566;52.928;10.522;2023-04-06T02:42:22;10.03;;;4.30;;
20810;SDS011;10566;52.928;10.522;2023-04-06T02:44:48;8.97;;;4.30;;
20810;SDS011;10566;52.928;10.522;2023-04-06T02:47:15;9.77;;;4.30;;
20810;SDS011;10566;52.928;10.522;2023-04-06T02:49:43;9.67;;;3.97;;
20810;SDS011;10566;52.928;10.522;2023-04-06T02:52:09;8.77;;;4.03;;
20810;SDS011;10566;52.928;10.522;2023-04-06T02:54:36;7.90;;;3.20;;
20810;SDS011;10566;52.928;10.522;2023-04-06T02:57:02;14.03;;;4.17;;
20810;SDS011;10566;52.928;10.522;2023-04-06T02:59:28;8.10;;;3.50;;
20810;SDS011;10566;52.928;10.522;2023-04-06T03:01:54;7.90;;;3.53;;
20810;SDS011;10566;52.928;10.522;2023-04-06T03:04:20;8.00;;;3.30;;
20810;SDS011;10566;52.928;10.522;2023-04-06T03:06:50;6.87;;;3.10;;
20810;SDS011;10566;52.928;10.522;2023-04-06T03:09:16;5.57;;;3.10;;
20810;SDS011;10566;52.928;10.522;2023-04-06T03:11:42;7.83;;;3.27;;
20810;SDS011;10566;52.928;10.522;2023-04-06T03:14:11;8.90;;;3.60;;
20810;SDS011;10566;52.928;10.522;2023-04-06T03:16:37;8.07;;;3.63;;
20810;SDS011;10566;52.928;10.522;2023-04-06T03:19:03;8.90;;;3.80;;
20810;SDS011;10566;52.928;10.522;2023-04-06T03:21:29;10.00;;;4.03;;
20810;SDS011;10566;52.928;10.522;2023-04-06T03:23:55;8.03;;;4.10;;
20810;SDS011;10566;52.928;10.522;2023-04-06T03:26:21;9.30;;;3.77;;
20810;SDS011;10566;52.928;10.522;2023-04-06T03:28:47;6.90;;;3.50;;
20810;SDS011;10566;52.928;10.522;2023-04-06T03:31:13;8.63;;;3.17;;
20810;SDS011;10566;52.928;10.522;2023-04-06T03:33:40;8.87;;;3.90;;
20810;SDS011;10566;52.928;10.522;2023-04-06T03:36:06;7.33;;;3.87;;
20810;SDS011;10566;52.928;10.522;2023-04-06T03:38:32;8.17;;;3.40;;
20810;SDS011;10566;52.928;10.522;2023-04-06T03:40:58;7.87;;;3.70;;
20810;SDS011;10566;52.928;10.522;2023-04-06T03:43:24;7.13;;;3.67;;
20810;SDS011;10566;52.928;10.522;2023-04-06T03:45:50;6.07;;;3.53;;
20810;SDS011;10566;52.928;10.522;2023-04-06T03:48:16;8.20;;;3.40;;
20810;SDS011;10566;52.928;10.522;2023-04-06T03:50:42;19.03;;;10.40;;
20810;SDS011;10566;52.928;10.522;2023-04-06T03:53:08;15.77;;;9.03;;
20810;SDS011;10566;52.928;10.522;2023-04-06T03:55:34;10.47;;;4.83;;
20810;SDS011;10566;52.928;10.522;2023-04-06T03:58:00;8.03;;;3.90;;
20810;SDS011;10566;52.928;10.522;2023-04-06T04:00:26;7.53;;;3.70;;
20810;SDS011;10566;52.928;10.522;2023-04-06T04:02:52;8.13;;;3.70;;
20810;SDS011;10566;52.928;10.522;2023-04-06T04:05:18;11.23;;;4.93;;
20810;SDS011;10566;52.928;10.522;2023-04-06T04:07:44;8.70;;;4.00;;
20810;SDS011;10566;52.928;10.522;2023-04-06T04:10:10;7.67;;;4.10;;
20810;SDS011;10566;52.928;10.522;2023-04-06T04:12:36;8.53;;;4.30;;
20810;SDS011;10566;52.928;10.522;2023-04-06T04:15:02;8.30;;;4.43;;
20810;SDS011;10566;52.928;10.522;2023-04-06T04:17:28;13.07;;;4.60;;
20810;SDS011;10566;52.928;10.522;2023-04-06T04:19:54;8.60;;;4.73;;
20810;SDS011;10566;52.928;10.522;2023-04-06T04:22:20;7.37;;;4.07;;
20810;SDS011;10566;52.928;10.522;2023-04-06T04:24:46;7.90;;;3.97;;
20810;SDS011;10566;52.928;10.522;2023-04-06T04:27:12;7.87;;;4.17;;
20810;SDS011;10566;52.928;10.522;2023-04-06T04:29:38;9.77;;;4.03;;
20810;SDS011;10566;52.928;10.522;2023-04-06T04:32:04;9.57;;;4.03;;
20810;SDS011;10566;52.928;10.522;2023-04-06T04:34:30;6.83;;;3.77;;
20810;SDS011;10566;52.928;10.522;2023-04-06T04:36:56;9.67;;;4.13;;
20810;SDS011;10566;52.928;10.522;2023-04-06T04:39:22;7.67;;;4.00;;
20810;SDS011;10566;52.928;10.522;2023-04-06T04:41:48;8.47;;;5.00;;
20810;SDS011;10566;52.928;10.522;2023-04-06T04:44:14;9.63;;;4.87;;
20810;SDS011;10566;52.928;10.522;2023-04-06T04:46:40;10.53;;;4.80;;
20810;SDS011;10566;52.928;10.522;2023-04-06T04:49:06;7.73;;;4.30;;
20810;SDS011;10566;52.928;10.522;2023-04-06T04:51:32;9.83;;;5.00;;
20810;SDS011;10566;52.928;10.522;2023-04-06T04:53:58;9.00;;;4.87;;
20810;SDS011;10566;52.928;10.522;2023-04-06T04:56:24;9.87;;;5.90;;
20810;SDS011;10566;52.928;10.522;2023-04-06T04:58:52;13.43;;;6.30;;
20810;SDS011;10566;52.928;10.522;2023-04-06T05:01:18;15.73;;;6.83;;
20810;SDS011;10566;52.928;10.522;2023-04-06T05:03:44;11.30;;;6.77;;
20810;SDS011;10566;52.928;10.522;2023-04-06T05:06:10;11.40;;;7.03;;
20810;SDS011;10566;52.928;10.522;2023-04-06T05:08:36;11.73;;;6.57;;
20810;SDS011;10566;52.928;10.522;2023-04-06T05:11:02;9.93;;;6.40;;
20810;SDS011;10566;52.928;10.522;2023-04-06T05:13:29;13.07;;;6.47;;
20810;SDS011;10566;52.928;10.522;2023-04-06T05:15:56;11.67;;;7.20;;
20810;SDS011;10566;52.928;10.522;2023-04-06T05:18:22;12.20;;;8.47;;
20810;SDS011;10566;52.928;10.522;2023-04-06T05:20:48;15.60;;;8.10;;
20810;SDS011;10566;52.928;10.522;2023-04-06T05:23:14;12.27;;;7.43;;
20810;SDS011;10566;52.928;10.522;2023-04-06T05:25:40;10.10;;;6.93;;
20810;SDS011;10566;52.928;10.522;2023-04-06T05:28:06;13.37;;;7.30;;
20810;SDS011;10566;52.928;10.522;2023-04-06T05:30:32;14.10;;;7.70;;
20810;SDS011;10566;52.928;10.522;2023-04-06T05:33:00;14.10;;;6.77;;
20810;SDS011;10566;52.928;10.522;2023-04-06T05:35:26;16.93;;;7.30;;
20810;SDS011;10566;52.928;10.522;2023-04-06T05:37:52;14.47;;;7.97;;
20810;SDS011;10566;52.928;10.522;2023-04-06T05:40:18;19.83;;;10.73;;
20810;SDS011;10566;52.928;10.522;2023-04-06T05:42:44;18.30;;;11.07;;
20810;SDS011;10566;52.928;10.522;2023-04-06T05:45:11;20.00;;;9.17;;
20810;SDS011;10566;52.928;10.522;2023-04-06T05:47:41;15.10;;;8.80;;
20810;SDS011;10566;52.928;10.522;2023-04-06T05:50:07;17.43;;;8.33;;
20810;SDS011;10566;52.928;10.522;2023-04-06T05:52:33;17.30;;;8.80;;
20810;SDS011;10566;52.928;10.522;2023-04-06T05:54:59;20.07;;;8.53;;
20810;SDS011;10566;52.928;10.522;2023-04-06T05:57:25;16.90;;;8.77;;
20810;SDS011;10566;52.928;10.522;2023-04-06T05:59:51;12.90;;;7.83;;
20810;SDS011;10566;52.928;10.522;2023-04-06T06:02:17;14.77;;;7.90;;
20810;SDS011;10566;52.928;10.522;2023-04-06T06:04:43;12.07;;;7.90;;
20810;SDS011;10566;52.928;10.522;2023-04-06T06:07:09;14.53;;;7.70;;
20810;SDS011;10566;52.928;10.522;2023-04-06T06:09:35;16.30;;;8.10;;
20810;SDS011;10566;52.928;10.522;2023-04-06T06:12:01;16.27;;;8.53;;
20810;SDS011;10566;52.928;10.522;2023-04-06T06:14:27;17.80;;;10.10;;
20810;SDS011;10566;52.928;10.522;2023-04-06T06:16:53;17.93;;;9.80;;
20810;SDS011;10566;52.928;10.522;2023-04-06T06:19:20;17.20;;;8.73;;
20810;SDS011;10566;52.928;10.522;2023-04-06T06:21:46;16.10;;;8.30;;
20810;SDS011;10566;52.928;10.522;2023-04-06T06:24:12;15.70;;;9.50;;
20810;SDS011;10566;52.928;10.522;2023-04-06T06:26:38;14.50;;;7.50;;
20810;SDS011;10566;52.928;10.522;2023-04-06T06:29:04;13.47;;;7.13;;
20810;SDS011;10566;52.928;10.522;2023-04-06T06:31:31;12.43;;;7.00;;
20810;SDS011;10566;52.928;10.522;2023-04-06T06:33:57;14.07;;;7.43;;
20810;SDS011;10566;52.928;10.522;2023-04-06T06:36:23;13.90;;;6.63;;
20810;SDS011;10566;52.928;10.522;2023-04-06T06:38:50;13.00;;;6.87;;
20810;SDS011;10566;52.928;10.522;2023-04-06T06:41:16;13.47;;;7.03;;
20810;SDS011;10566;52.928;10.522;2023-04-06T06:43:42;12.43;;;7.17;;
20810;SDS011;10566;52.928;10.522;2023-04-06T06:46:08;12.07;;;6.60;;
20810;SDS011;10566;52.928;10.522;2023-04-06T06:48:34;18.27;;;9.57;;
20810;SDS011;10566;52.928;10.522;2023-04-06T06:51:00;14.67;;;8.13;;
20810;SDS011;10566;52.928;10.522;2023-04-06T06:53:27;11.83;;;5.93;;
20810;SDS011;10566;52.928;10.522;2023-04-06T06:55:53;10.47;;;5.30;;
20810;SDS011;10566;52.928;10.522;2023-04-06T06:58:19;13.03;;;6.50;;
20810;SDS011;10566;52.928;10.522;2023-04-06T07:00:46;13.87;;;7.00;;
20810;SDS011;10566;52.928;10.522;2023-04-06T07:03:12;12.57;;;6.80;;
20810;SDS011;10566;52.928;10.522;2023-04-06T07:05:38;11.60;;;6.33;;
20810;SDS011;10566;52.928;10.522;2023-04-06T07:08:04;13.37;;;6.37;;
20810;SDS011;10566;52.928;10.522;2023-04-06T07:10:30;13.43;;;5.80;;
20810;SDS011;10566;52.928;10.522;2023-04-06T07:12:56;10.87;;;6.10;;
20810;SDS011;10566;52.928;10.522;2023-04-06T07:15:22;13.23;;;6.90;;
20810;SDS011;10566;52.928;10.522;2023-04-06T07:17:48;11.93;;;6.30;;
20810;SDS011;10566;52.928;10.522;2023-04-06T07:20:14;10.60;;;5.50;;
20810;SDS011;10566;52.928;10.522;2023-04-06T07:22:42;11.10;;;6.00;;
20810;SDS011;10566;52.928;10.522;2023-04-06T07:25:08;11.83;;;7.10;;
20810;SDS011;10566;52.928;10.522;2023-04-06T07:27:34;12.57;;;7.13;;
20810;SDS011;10566;52.928;10.522;2023-04-06T07:30:00;10.50;;;6.40;;
20810;SDS011;10566;52.928;10.522;2023-04-06T07:32:26;14.20;;;7.30;;
20810;SDS011;10566;52.928;10.522;2023-04-06T07:34:52;10.90;;;6.57;;
20810;SDS011;10566;52.928;10.522;2023-04-06T07:37:18;14.90;;;6.93;;
20810;SDS011;10566;52.928;10.522;2023-04-06T07:39:44;12.23;;;6.80;;
20810;SDS011;10566;52.928;10.522;2023-04-06T07:42:10;11.90;;;6.90;;
20810;SDS011;10566;52.928;10.522;2023-04-06T07:44:36;10.13;;;6.73;;
20810;SDS011;10566;52.928;10.522;2023-04-06T07:47:02;9.50;;;6.73;;
20810;SDS011;10566;52.928;10.522;2023-04-06T07:49:28;10.40;;;7.17;;
20810;SDS011;10566;52.928;10.522;2023-04-06T07:51:54;9.77;;;6.43;;
20810;SDS011;10566;52.928;10.522;2023-04-06T07:54:20;10.10;;;6.77;;
20810;SDS011;10566;52.928;10.522;2023-04-06T07:56:46;12.23;;;6.87;;
20810;SDS011;10566;52.928;10.522;2023-04-06T07:59:12;11.80;;;6.70;;
20810;SDS011;10566;52.928;10.522;2023-04-06T08:01:38;12.33;;;7.10;;
20810;SDS011;10566;52.928;10.522;2023-04-06T08:04:04;11.37;;;7.53;;
20810;SDS011;10566;52.928;10.522;2023-04-06T08:06:30;11.87;;;7.47;;
20810;SDS011;10566;52.928;10.522;2023-04-06T08:08:56;11.43;;;7.37;;
20810;SDS011;10566;52.928;10.522;2023-04-06T08:11:22;10.43;;;6.97;;
20810;SDS011;10566;52.928;10.522;2023-04-06T08:13:48;9.87;;;7.00;;
20810;SDS011;10566;52.928;10.522;2023-04-06T08:16:14;12.60;;;7.50;;
20810;SDS011;10566;52.928;10.522;2023-04-06T08:18:40;12.73;;;7.20;;
20810;SDS011;10566;52.928;10.522;2023-04-06T08:21:06;13.43;;;7.47;;
20810;SDS011;10566;52.928;10.522;2023-04-06T08:23:32;11.93;;;7.10;;
20810;SDS011;10566;52.928;10.522;2023-04-06T08:25:58;11.57;;;6.90;;
20810;SDS011;10566;52.928;10.522;2023-04-06T08:28:24;10.90;;;6.70;;
20810;SDS011;10566;52.928;10.522;2023-04-06T08:30:50;12.63;;;6.50;;
20810;SDS011;10566;52.928;10.522;2023-04-06T08:33:16;12.33;;;7.47;;
20810;SDS011;10566;52.928;10.522;2023-04-06T08:35:42;10.93;;;6.50;;
20810;SDS011;10566;52.928;10.522;2023-04-06T08:38:08;9.33;;;6.03;;
20810;SDS011;10566;52.928;10.522;2023-04-06T08:40:37;10.40;;;6.53;;
20810;SDS011;10566;52.928;10.522;2023-04-06T08:43:03;10.97;;;6.17;;
20810;SDS011;10566;52.928;10.522;2023-04-06T08:45:33;9.00;;;5.43;;
20810;SDS011;10566;52.928;10.522;2023-04-06T08:47:59;10.17;;;5.67;;
20810;SDS011;10566;52.928;10.522;2023-04-06T08:50:26;10.93;;;5.83;;
20810;SDS011;10566;52.928;10.522;2023-04-06T08:52:53;10.77;;;5.53;;
20810;SDS011;10566;52.928;10.522;2023-04-06T08:55:19;9.67;;;5.50;;
20810;SDS011;10566;52.928;10.522;2023-04-06T08:57:45;9.43;;;5.27;;
20810;SDS011;10566;52.928;10.522;2023-04-06T09:00:12;11.13;;;5.70;;
20810;SDS011;10566;52.928;10.522;2023-04-06T09:02:39;10.37;;;5.70;;
20810;SDS011;10566;52.928;10.522;2023-04-06T09:05:06;12.43;;;5.13;;
20810;SDS011;10566;52.928;10.522;2023-04-06T09:07:33;10.27;;;5.00;;
20810;SDS011;10566;52.928;10.522;2023-04-06T09:09:59;11.27;;;4.50;;
20810;SDS011;10566;52.928;10.522;2023-04-06T09:12:29;9.20;;;5.37;;
20810;SDS011;10566;52.928;10.522;2023-04-06T09:14:56;7.83;;;4.50;;
20810;SDS011;10566;52.928;10.522;2023-04-06T09:17:23;8.70;;;4.50;;
20810;SDS011;10566;52.928;10.522;2023-04-06T09:19:49;8.83;;;4.30;;
20810;SDS011;10566;52.928;10.522;2023-04-06T09:22:15;8.57;;;4.57;;
20810;SDS011;10566;52.928;10.522;2023-04-06T09:27:08;8.43;;;4.40;;
20810;SDS011;10566;52.928;10.522;2023-04-06T09:29:34;7.47;;;3.80;;
20810;SDS011;10566;52.928;10.522;2023-04-06T09:32:05;7.43;;;4.30;;
20810;SDS011;10566;52.928;10.522;2023-04-06T09:34:31;7.70;;;3.93;;
20810;SDS011;10566;52.928;10.522;2023-04-06T09:36:58;8.00;;;4.00;;
20810;SDS011;10566;52.928;10.522;2023-04-06T09:39:26;11.03;;;4.93;;
20810;SDS011;10566;52.928;10.522;2023-04-06T09:41:52;6.97;;;3.93;;
20810;SDS011;10566;52.928;10.522;2023-04-06T09:44:21;10.03;;;4.50;;
20810;SDS011;10566;52.928;10.522;2023-04-06T09:46:50;8.83;;;4.23;;
20810;SDS011;10566;52.928;10.522;2023-04-06T09:49:18;8.40;;;4.33;;
20810;SDS011;10566;52.928;10.522;2023-04-06T09:51:45;9.73;;;4.60;;
20810;SDS011;10566;52.928;10.522;2023-04-06T09:54:15;8.60;;;4.73;;
20810;SDS011;10566;52.928;10.522;2023-04-06T09:59:13;7.43;;;4.80;;
20810;SDS011;10566;52.928;10.522;2023-04-06T10:01:39;9.00;;;5.27;;
20810;SDS011;10566;52.928;10.522;2023-04-06T10:06:35;8.80;;;5.03;;
20810;SDS011;10566;52.928;10.522;2023-04-06T10:09:07;9.70;;;4.90;;
20810;SDS011;10566;52.928;10.522;2023-04-06T10:11:34;9.87;;;5.60;;
20810;SDS011;10566;52.928;10.522;2023-04-06T10:14:00;10.17;;;5.60;;
20810;SDS011;10566;52.928;10.522;2023-04-06T10:16:26;9.37;;;5.50;;
20810;SDS011;10566;52.928;10.522;2023-04-06T10:19:41;9.57;;;5.67;;
20810;SDS011;10566;52.928;10.522;2023-04-06T10:21:41;13.07;;;5.90;;
20810;SDS011;10566;52.928;10.522;2023-04-06T10:24:09;9.43;;;6.00;;
20810;SDS011;10566;52.928;10.522;2023-04-06T10:26:35;9.00;;;6.03;;
20810;SDS011;10566;52.928;10.522;2023-04-06T10:29:04;10.53;;;5.97;;
20810;SDS011;10566;52.928;10.522;2023-04-06T10:31:31;13.20;;;6.47;;
20810;SDS011;10566;52.928;10.522;2023-04-06T10:34:00;9.67;;;6.17;;
20810;SDS011;10566;52.928;10.522;2023-04-06T10:36:27;10.93;;;6.20;;
20810;SDS011;10566;52.928;10.522;2023-04-06T10:38:55;11.53;;;6.30;;
20810;SDS011;10566;52.928;10.522;2023-04-06T10:41:22;10.43;;;6.47;;
20810;SDS011;10566;52.928;10.522;2023-04-06T10:43:55;13.40;;;6.63;;
20810;SDS011;10566;52.928;10.522;2023-04-06T10:46:27;12.03;;;6.97;;
20810;SDS011;10566;52.928;10.522;2023-04-06T10:48:54;12.40;;;7.70;;
20810;SDS011;10566;52.928;10.522;2023-04-06T10:51:25;12.20;;;7.00;;
20810;SDS011;10566;52.928;10.522;2023-04-06T10:53:52;12.63;;;6.90;;
20810;SDS011;10566;52.928;10.522;2023-04-06T10:56:21;11.50;;;7.30;;
20810;SDS011;10566;52.928;10.522;2023-04-06T10:58:48;10.33;;;7.00;;
20810;SDS011;10566;52.928;10.522;2023-04-06T11:01:15;10.80;;;7.00;;
20810;SDS011;10566;52.928;10.522;2023-04-06T11:03:45;12.23;;;7.20;;
20810;SDS011;10566;52.928;10.522;2023-04-06T11:06:17;10.73;;;7.27;;
20810;SDS011;10566;52.928;10.522;2023-04-06T11:08:43;10.83;;;6.90;;
20810;SDS011;10566;52.928;10.522;2023-04-06T11:11:10;11.73;;;7.40;;
20810;SDS011;10566;52.928;10.522;2023-04-06T11:14:01;11.47;;;6.83;;
20810;SDS011;10566;52.928;10.522;2023-04-06T11:16:27;11.40;;;7.43;;
20810;SDS011;10566;52.928;10.522;2023-04-06T11:21:31;12.27;;;7.37;;
20810;SDS011;10566;52.928;10.522;2023-04-06T11:24:07;11.47;;;7.20;;
20810;SDS011;10566;52.928;10.522;2023-04-06T11:26:48;15.20;;;7.77;;
20810;SDS011;10566;52.928;10.522;2023-04-06T11:29:16;11.13;;;7.57;;
20810;SDS011;10566;52.928;10.522;2023-04-06T11:31:45;13.27;;;7.50;;
20810;SDS011;10566;52.928;10.522;2023-04-06T11:34:12;11.97;;;7.23;;
20810;SDS011;10566;52.928;10.522;2023-04-06T11:36:41;11.27;;;7.70;;
20810;SDS011;10566;52.928;10.522;2023-04-06T11:39:07;11.30;;;7.17;;
20810;SDS011;10566;52.928;10.522;2023-04-06T11:41:33;14.53;;;8.57;;
20810;SDS011;10566;52.928;10.522;2023-04-06T11:44:00;12.17;;;7.77;;
20810;SDS011;10566;52.928;10.522;2023-04-06T11:46:28;13.03;;;8.00;;
20810;SDS011;10566;52.928;10.522;2023-04-06T11:48:57;12.80;;;7.07;;
20810;SDS011;10566;52.928;10.522;2023-04-06T11:51:24;13.03;;;8.33;;
20810;SDS011;10566;52.928;10.522;2023-04-06T11:53:51;13.17;;;8.43;;
20810;SDS011;10566;52.928;10.522;2023-04-06T11:56:27;12.90;;;7.83;;
20810;SDS011;10566;52.928;10.522;2023-04-06T11:58:57;10.47;;;7.07;;
20810;SDS011;10566;52.928;10.522;2023-04-06T12:01:25;11.07;;;7.53;;
20810;SDS011;10566;52.928;10.522;2023-04-06T12:03:51;13.50;;;7.70;;
20810;SDS011;10566;52.928;10.522;2023-04-06T12:06:17;12.07;;;8.13;;
20810;SDS011;10566;52.928;10.522;2023-04-06T12:08:43;12.90;;;7.50;;
20810;SDS011;10566;52.928;10.522;2023-04-06T12:11:10;10.03;;;7.30;;
20810;SDS011;10566;52.928;10.522;2023-04-06T12:13:36;12.67;;;8.33;;
20810;SDS011;10566;52.928;10.522;2023-04-06T12:16:02;10.43;;;7.40;;
20810;SDS011;10566;52.928;10.522;2023-04-06T12:18:28;11.63;;;7.87;;
20810;SDS011;10566;52.928;10.522;2023-04-06T12:20:55;12.70;;;8.13;;
20810;SDS011;10566;52.928;10.522;2023-04-06T12:23:21;13.23;;;7.90;;
20810;SDS011;10566;52.928;10.522;2023-04-06T12:25:47;13.10;;;8.30;;
20810;SDS011;10566;52.928;10.522;2023-04-06T12:28:13;12.70;;;7.50;;
20810;SDS011;10566;52.928;10.522;2023-04-06T12:30:39;11.80;;;7.80;;
20810;SDS011;10566;52.928;10.522;2023-04-06T12:33:06;13.87;;;7.80;;
20810;SDS011;10566;52.928;10.522;2023-04-06T12:35:35;12.47;;;8.57;;
20810;SDS011;10566;52.928;10.522;2023-04-06T12:38:02;11.37;;;7.70;;
20810;SDS011;10566;52.928;10.522;2023-04-06T12:40:28;12.70;;;8.00;;
20810;SDS011;10566;52.928;10.522;2023-04-06T12:42:55;11.67;;;7.47;;
20810;SDS011;10566;52.928;10.522;2023-04-06T12:45:21;10.50;;;6.90;;
20810;SDS011;10566;52.928;10.522;2023-04-06T12:47:47;10.67;;;6.60;;
20810;SDS011;10566;52.928;10.522;2023-04-06T12:50:13;11.73;;;7.00;;
20810;SDS011;10566;52.928;10.522;2023-04-06T12:52:39;13.53;;;8.40;;
20810;SDS011;10566;52.928;10.522;2023-04-06T12:55:05;12.30;;;8.00;;
20810;SDS011;10566;52.928;10.522;2023-04-06T12:57:31;10.90;;;7.00;;
20810;SDS011;10566;52.928;10.522;2023-04-06T12:59:57;9.15;;;6.25;;
20810;SDS011;10566;52.928;10.522;2023-04-06T13:02:23;11.57;;;6.95;;
20810;SDS011;10566;52.928;10.522;2023-04-06T13:04:50;11.35;;;6.60;;
20810;SDS011;10566;52.928;10.522;2023-04-06T13:07:17;10.68;;;6.60;;
20810;SDS011;10566;52.928;10.522;2023-04-06T13:09:43;11.20;;;6.93;;
20810;SDS011;10566;52.928;10.522;2023-04-06T13:12:09;14.77;;;7.40;;
20810;SDS011;10566;52.928;10.522;2023-04-06T13:14:35;10.82;;;6.90;;
20810;SDS011;10566;52.928;10.522;2023-04-06T13:17:01;11.85;;;6.70;;
20810;SDS011;10566;52.928;10.522;2023-04-06T13:19:27;9.18;;;5.90;;
20810;SDS011;10566;52.928;10.522;2023-04-06T13:21:53;10.82;;;6.93;;
20810;SDS011;10566;52.928;10.522;2023-04-06T13:24:19;10.73;;;6.85;;
20810;SDS011;10566;52.928;10.522;2023-04-06T13:26:46;10.43;;;6.25;;
20810;SDS011;10566;52.928;10.522;2023-04-06T13:29:12;9.50;;;6.33;;
20810;SDS011;10566;52.928;10.522;2023-04-06T13:31:38;9.98;;;6.15;;
20810;SDS011;10566;52.928;10.522;2023-04-06T13:34:04;9.80;;;6.50;;
20810;SDS011;10566;52.928;10.522;2023-04-06T13:36:30;10.73;;;6.65;;
20810;SDS011;10566;52.928;10.522;2023-04-06T13:38:57;10.15;;;6.70;;
20810;SDS011;10566;52.928;10.522;2023-04-06T13:41:23;10.93;;;6.40;;
20810;SDS011;10566;52.928;10.522;2023-04-06T13:43:51;12.77;;;7.47;;
20810;SDS011;10566;52.928;10.522;2023-04-06T13:46:17;12.53;;;7.93;;
20810;SDS011;10566;52.928;10.522;2023-04-06T13:48:43;13.75;;;7.40;;
20810;SDS011;10566;52.928;10.522;2023-04-06T13:51:10;10.88;;;6.68;;
20810;SDS011;10566;52.928;10.522;2023-04-06T13:53:36;9.48;;;6.40;;
20810;SDS011;10566;52.928;10.522;2023-04-06T13:56:02;10.38;;;6.70;;
20810;SDS011;10566;52.928;10.522;2023-04-06T13:58:28;9.02;;;6.30;;
20810;SDS011;10566;52.928;10.522;2023-04-06T14:00:54;10.85;;;6.45;;
20810;SDS011;10566;52.928;10.522;2023-04-06T14:03:21;12.27;;;6.72;;
20810;SDS011;10566;52.928;10.522;2023-04-06T14:05:48;10.35;;;5.78;;
20810;SDS011;10566;52.928;10.522;2023-04-06T14:08:14;11.68;;;7.07;;
20810;SDS011;10566;52.928;10.522;2023-04-06T14:10:40;11.05;;;6.30;;
20810;SDS011;10566;52.928;10.522;2023-04-06T14:13:07;9.77;;;6.55;;
20810;SDS011;10566;52.928;10.522;2023-04-06T14:15:33;14.70;;;6.38;;
20810;SDS011;10566;52.928;10.522;2023-04-06T14:17:59;10.32;;;5.97;;
20810;SDS011;10566;52.928;10.522;2023-04-06T14:20:25;9.25;;;6.20;;
20810;SDS011;10566;52.928;10.522;2023-04-06T14:22:51;8.65;;;5.45;;
20810;SDS011;10566;52.928;10.522;2023-04-06T14:25:19;9.27;;;6.35;;
20810;SDS011;10566;52.928;10.522;2023-04-06T14:27:45;9.93;;;6.10;;
20810;SDS011;10566;52.928;10.522;2023-04-06T14:30:11;11.82;;;6.13;;
20810;SDS011;10566;52.928;10.522;2023-04-06T14:32:37;9.02;;;6.20;;